Hercules — V7WL6 — position and weather

sailwx.info

Track history (hours):
 
Tides and Currents Weather Stations Pressure Air Temp Water Temp Dewpoint Dewpoint Depression Visibility Wind Speed Wind Dir Waves Ship Positions

Hercules

Last reported at 2018-May-26 16:48 UTC. Time now 2018-Jun-23 02:55 UTC.
Position N 22°23' E 120°13'.
Warning: this ship's position is 27 days out of date.

Length 189 m; draft 6.3 m.

Type: Cargo ship. MMSI: 538004331.

Date/timePositionNaut miles runAvg speedWind from/ knotsBaromVisibWave heightAir tempDewpointWater temp
2018-May-26 16:48N 22°23' E 120°13'412.1
2018-May-26 16:30N 22°26' E 120°13'611.3
2018-May-26 15:58N 22°33' E 120°13'510.7
2018-May-26 15:30N 22°33' E 120°18'1 0.3
2018-May-26 11:18N 22°33' E 120°19'0 0.1
2018-May-26 10:49N 22°33' E 120°19'0 0.0
2018-May-26 10:19N 22°33' E 120°19'0 0.0
2018-May-26 02:14N 22°33' E 120°19'0 0.0
2018-May-26 01:49N 22°33' E 120°19'0 0.0
2018-May-26 00:30N 22°33' E 120°19'0 0.1
2018-May-25 23:57N 22°33' E 120°19'0 0.0
2018-May-25 23:30N 22°33' E 120°19'0 0.0
2018-May-25 23:00N 22°33' E 120°19'1 2.6
2018-May-25 22:30N 22°33' E 120°18'4 7.6
2018-May-25 22:00N 22°30' E 120°15'0 0.2
2018-May-25 21:28N 22°30' E 120°15'0 0.0
2018-May-25 20:52N 22°30' E 120°15'0 0.0
2018-May-25 20:28N 22°30' E 120°15'0 0.0
2018-May-25 19:58N 22°30' E 120°15'0 0.0
2018-May-25 19:28N 22°30' E 120°15'0 0.1
2018-May-25 18:58N 22°30' E 120°15'0 0.1
2018-May-25 18:28N 22°30' E 120°15'0 0.0
2018-May-25 17:58N 22°30' E 120°15'0 0.0
2018-May-25 17:28N 22°30' E 120°15'0 0.1
2018-May-25 16:58N 22°30' E 120°15'0 0.0
2018-May-25 16:28N 22°30' E 120°15'0 0.0
2018-May-25 15:58N 22°30' E 120°15'0 0.0
2018-May-25 15:22N 22°30' E 120°15'0 0.0
2018-May-25 14:58N 22°30' E 120°15'0 0.0
2018-May-25 14:28N 22°30' E 120°15'0 0.0
2018-May-25 13:58N 22°30' E 120°15'0 0.0
2018-May-25 13:28N 22°30' E 120°15'0 0.1
2018-May-25 12:58N 22°30' E 120°15'0 0.0
2018-May-25 12:22N 22°30' E 120°15'0 0.0
2018-May-25 11:58N 22°30' E 120°15'0 0.0
2018-May-25 11:16N 22°30' E 120°15'0 0.0
2018-May-25 10:52N 22°30' E 120°15'0 0.0
2018-May-25 10:28N 22°30' E 120°15'0 0.0
2018-May-25 09:58N 22°30' E 120°15'0 0.1
2018-May-25 09:28N 22°30' E 120°15'0 0.1
2018-May-25 08:58N 22°30' E 120°15'0 0.1
2018-May-25 08:28N 22°30' E 120°15'0 0.2
2018-May-25 08:00N 22°30' E 120°15'0 0.6
2018-May-25 07:30N 22°30' E 120°15'3 6.6
2018-May-25 07:00N 22°32' E 120°12'612.0
2018-May-25 06:30N 22°37' E 120°09'5 9.8
2018-May-25 06:00N 22°41' E 120°05'713.3
2018-May-25 05:31N 22°46' E 120°00'612.6
2018-May-25 05:00N 22°50' E 119°55'  
Track history (hours):
 
Tides and Currents Weather Stations Pressure Air Temp Water Temp Dewpoint Dewpoint Depression Visibility Wind Speed Wind Dir Waves Ship Positions

Hercules

Last reported at 2018-May-26 16:48 UTC. Time now 2018-Jun-23 02:55 UTC.
Position N 22°23' E 120°13'.
Warning: this ship's position is 27 days out of date.

Length 189 m; draft 6.3 m.

Type: Cargo ship. MMSI: 538004331.

Date/timePositionNaut miles runAvg speedWind from/ knotsBaromVisibWave heightAir tempDewpointWater temp
2018-May-26 16:48N 22°23' E 120°13'412.1
2018-May-26 16:30N 22°26' E 120°13'611.3
2018-May-26 15:58N 22°33' E 120°13'510.7
2018-May-26 15:30N 22°33' E 120°18'1 0.3
2018-May-26 11:18N 22°33' E 120°19'0 0.1
2018-May-26 10:49N 22°33' E 120°19'0 0.0
2018-May-26 10:19N 22°33' E 120°19'0 0.0
2018-May-26 02:14N 22°33' E 120°19'0 0.0
2018-May-26 01:49N 22°33' E 120°19'0 0.0
2018-May-26 00:30N 22°33' E 120°19'0 0.1
2018-May-25 23:57N 22°33' E 120°19'0 0.0
2018-May-25 23:30N 22°33' E 120°19'0 0.0
2018-May-25 23:00N 22°33' E 120°19'1 2.6
2018-May-25 22:30N 22°33' E 120°18'4 7.6
2018-May-25 22:00N 22°30' E 120°15'0 0.2
2018-May-25 21:28N 22°30' E 120°15'0 0.0
2018-May-25 20:52N 22°30' E 120°15'0 0.0
2018-May-25 20:28N 22°30' E 120°15'0 0.0
2018-May-25 19:58N 22°30' E 120°15'0 0.0
2018-May-25 19:28N 22°30' E 120°15'0 0.1
2018-May-25 18:58N 22°30' E 120°15'0 0.1
2018-May-25 18:28N 22°30' E 120°15'0 0.0
2018-May-25 17:58N 22°30' E 120°15'0 0.0
2018-May-25 17:28N 22°30' E 120°15'0 0.1
2018-May-25 16:58N 22°30' E 120°15'0 0.0
2018-May-25 16:28N 22°30' E 120°15'0 0.0
2018-May-25 15:58N 22°30' E 120°15'0 0.0
2018-May-25 15:22N 22°30' E 120°15'0 0.0
2018-May-25 14:58N 22°30' E 120°15'0 0.0
2018-May-25 14:28N 22°30' E 120°15'0 0.0
2018-May-25 13:58N 22°30' E 120°15'0 0.0
2018-May-25 13:28N 22°30' E 120°15'0 0.1
2018-May-25 12:58N 22°30' E 120°15'0 0.0
2018-May-25 12:22N 22°30' E 120°15'0 0.0
2018-May-25 11:58N 22°30' E 120°15'0 0.0
2018-May-25 11:16N 22°30' E 120°15'0 0.0
2018-May-25 10:52N 22°30' E 120°15'0 0.0
2018-May-25 10:28N 22°30' E 120°15'0 0.0
2018-May-25 09:58N 22°30' E 120°15'0 0.1
2018-May-25 09:28N 22°30' E 120°15'0 0.1
2018-May-25 08:58N 22°30' E 120°15'0 0.1
2018-May-25 08:28N 22°30' E 120°15'0 0.2
2018-May-25 08:00N 22°30' E 120°15'0 0.6
2018-May-25 07:30N 22°30' E 120°15'3 6.6
2018-May-25 07:00N 22°32' E 120°12'612.0
2018-May-25 06:30N 22°37' E 120°09'5 9.8
2018-May-25 06:00N 22°41' E 120°05'713.3
2018-May-25 05:31N 22°46' E 120°00'612.6
2018-May-25 05:00N 22°50' E 119°55'  

Dump ship's entire track history